Colfax, North Dakota
Current Conditions -  °F | °C
As of 6:15 PM on Monday 24 Nov 2014 (Local Time) from KBWP Reporting Station
Clear Clear  
Wind Chill:   Ceiling: Unl
Heat Index: 18°   Visibility: 10mi
Dew Point: 10°   Wind: 13mph
Humidity: 73%   Direction: 330°NNW
Pressure: 29.95"   Gusts: NA
Location:  46.47°N, 96.87°W
Report Text: KBWP 250015Z AUTO 33011KT 10SM CLR M08/M12 A2995 RMK AO1
Loading
Personal Weather Stations






























Interactive Weather Map New forecast layout! Learn more

10-Day Weather Forecast

Advertisements
Track Severe Weather on mobile